Time;durP1;ratioP1;P1;durP2;ratioP2;P2;SDS_P1;SDS_P2;PMS_P1;PMS_P2;Temp;Humidity;BMP_temperature;BMP_pressure;BME280_temperature;BME280_humidity;BME280_pressure;Samples;Min_cycle;Max_cycle;Signal;HPM_P1;HPM_P2
2022/10/10 00:01:21;;;;;;;8.93;4.30;;;10.00;99.90;;;;;;5099244;28;20444;-48
2022/10/10 00:03:48;;;;;;;15.10;4.55;;;10.30;99.90;;;;;;5112930;28;20040;-46
2022/10/10 00:06:15;;;;;;;7.18;3.17;;;9.80;99.90;;;;;;5114971;28;20074;-47
2022/10/10 00:08:42;;;;;;;11.07;4.53;;;9.80;99.90;;;;;;5133217;27;20074;-46
2022/10/10 00:11:09;;;;;;;;;;;9.80;99.90;;;;;;5122920;27;20048;-46
2022/10/10 00:13:37;;;;;;;10.05;5.72;;;9.90;99.90;;;;;;5114741;28;19952;-46
2022/10/10 00:16:04;;;;;;;14.30;6.65;;;9.90;99.90;;;;;;5114681;27;20467;-46
2022/10/10 00:18:32;;;;;;;10.32;6.85;;;9.90;99.90;;;;;;5126359;27;20066;-46
2022/10/10 00:20:58;;;;;;;;;;;10.00;99.90;;;;;;5135263;27;20062;-49
2022/10/10 00:23:25;;;;;;;13.05;7.43;;;10.10;99.90;;;;;;5135155;27;20006;-46
2022/10/10 00:25:52;;;;;;;12.38;7.43;;;10.10;99.90;;;;;;5128666;27;20510;-48
2022/10/10 00:28:19;;;;;;;14.77;7.22;;;10.10;99.90;;;;;;5134559;27;20141;-46
2022/10/10 00:30:46;;;;;;;12.73;7.45;;;10.10;99.90;;;;;;5130139;27;20122;-48
2022/10/10 00:33:59;;;;;;;13.95;7.30;;;10.20;99.90;;;;;;5029373;28;20048;-47
2022/10/10 00:36:26;;;;;;;14.52;7.47;;;10.20;99.90;;;;;;5031153;28;20073;-48
2022/10/10 00:38:53;;;;;;;14.85;7.15;;;10.10;99.90;;;;;;5031142;28;20124;-46
2022/10/10 00:41:21;;;;;;;13.13;6.38;;;10.10;99.90;;;;;;5028704;28;20146;-49
2022/10/10 00:44:09;;;;;;;12.98;6.63;;;10.20;99.90;;;;;;5024802;28;20617;-46
2022/10/10 00:46:36;;;;;;;14.75;6.32;;;10.50;99.90;;;;;;5030044;28;20132;-49
2022/10/10 00:49:13;;;;;;;13.63;6.45;;;10.20;99.90;;;;;;5028455;28;20119;-47
2022/10/10 00:51:42;;;;;;;13.63;6.65;;;10.20;99.90;;;;;;5082043;27;20043;-48
2022/10/10 00:54:13;;;;;;;14.35;7.18;;;10.20;99.90;;;;;;5114072;28;20404;-48
2022/10/10 00:56:46;;;;;;;12.73;6.43;;;10.20;99.90;;;;;;5113133;28;20078;-48
2022/10/10 00:59:14;;;;;;;8.50;6.32;;;10.20;99.90;;;;;;5113738;27;20061;-50
2022/10/10 01:01:41;;;;;;;16.08;6.70;;;10.20;99.90;;;;;;5113554;27;20104;-46
2022/10/10 01:04:46;;;;;;;12.57;6.45;;;10.20;99.90;;;;;;5113312;28;20036;-46
2022/10/10 01:07:24;;;;;;;13.50;7.00;;;10.30;99.90;;;;;;5010713;28;20089;-47
2022/10/10 01:09:53;;;;;;;;;;;10.30;99.90;;;;;;5031470;28;20064;-48
2022/10/10 01:12:44;;;;;;;9.40;6.22;;;10.30;99.90;;;;;;5081212;27;19973;-45
2022/10/10 01:15:39;;;;;;;14.05;6.22;;;10.30;99.90;;;;;;5113678;28;20085;-48
2022/10/10 01:18:18;;;;;;;17.05;7.70;;;10.20;99.90;;;;;;5130098;27;20039;-50
2022/10/10 01:21:11;;;;;;;14.40;6.57;;;10.40;99.90;;;;;;5141632;27;20066;-48
2022/10/10 01:24:13;;;;;;;13.65;7.28;;;10.40;99.90;;;;;;5114774;27;20089;-49
2022/10/10 01:27:12;;;;;;;15.32;6.43;;;10.40;99.90;;;;;;5030733;28;20085;-48
2022/10/10 01:30:03;;;;;;;15.57;6.00;;;10.40;99.90;;;;;;5091136;28;20150;-45
2022/10/10 01:32:38;;;;;;;11.13;6.55;;;10.30;99.90;;;;;;5112841;27;20044;-49
2022/10/10 01:35:42;;;;;;;15.68;7.05;;;10.30;99.90;;;;;;5112749;27;20114;-49
2022/10/10 01:38:40;;;;;;;11.90;6.88;;;10.20;99.90;;;;;;5145213;27;20522;-48
2022/10/10 01:41:14;;;;;;;12.98;6.22;;;10.20;99.90;;;;;;5113295;28;20567;-49
2022/10/10 01:43:42;;;;;;;15.05;6.43;;;10.20;99.90;;;;;;5093932;28;20039;-48
2022/10/10 01:46:17;;;;;;;17.15;6.47;;;10.20;99.90;;;;;;5113122;28;20071;-50
2022/10/10 01:48:46;;;;;;;13.70;6.80;;;10.20;99.90;;;;;;5112914;28;20063;-49
2022/10/10 01:51:36;;;;;;;10.80;6.60;;;10.30;99.90;;;;;;5112874;28;20047;-48
2022/10/10 01:54:23;;;;;;;12.98;6.32;;;10.30;99.90;;;;;;5112141;27;20127;-49
2022/10/10 01:57:00;;;;;;;10.70;6.03;;;10.30;99.90;;;;;;5113017;28;20071;-48
2022/10/10 01:59:42;;;;;;;11.15;5.72;;;10.30;99.90;;;;;;5111863;28;20048;-48
2022/10/10 02:02:20;;;;;;;11.70;5.80;;;10.30;99.90;;;;;;5113052;28;20456;-48
2022/10/10 02:05:30;;;;;;;9.88;5.22;;;10.30;99.90;;;;;;5140414;27;20039;-48
2022/10/10 02:08:09;;;;;;;9.70;5.57;;;10.40;99.90;;;;;;5153383;27;20499;-48
2022/10/10 02:10:45;;;;;;;15.23;7.35;;;10.40;99.90;;;;;;5135969;27;20122;-48
2022/10/10 02:13:13;;;;;;;8.93;5.45;;;10.30;99.90;;;;;;5123557;27;20123;-50
2022/10/10 02:15:47;;;;;;;11.75;5.05;;;10.40;99.90;;;;;;5120539;27;20119;-48
2022/10/10 02:18:17;;;;;;;9.68;4.97;;;10.30;99.90;;;;;;5152796;27;20099;-48
2022/10/10 02:20:46;;;;;;;10.30;5.00;;;10.30;99.90;;;;;;5154091;27;20038;-48
2022/10/10 02:23:15;;;;;;;12.80;5.70;;;10.20;99.90;;;;;;5128340;27;20118;-48
2022/10/10 02:25:46;;;;;;;12.75;5.65;;;10.20;99.90;;;;;;5115818;27;20035;-48
2022/10/10 02:28:30;;;;;;;11.90;5.72;;;10.80;99.90;;;;;;5112201;28;20114;-47
2022/10/10 02:31:03;;;;;;;14.18;5.93;;;10.20;99.90;;;;;;5111665;27;20059;-51
2022/10/10 02:33:47;;;;;;;13.40;5.85;;;10.20;99.90;;;;;;5112115;28;20055;-48
2022/10/10 02:36:16;;;;;;;10.48;5.95;;;10.20;99.90;;;;;;5111526;28;20527;-48
2022/10/10 02:38:44;;;;;;;15.10;6.07;;;10.30;99.90;;;;;;5112158;28;20075;-48
2022/10/10 02:41:16;;;;;;;13.70;6.05;;;10.30;99.90;;;;;;5120283;27;20566;-48
2022/10/10 02:43:43;;;;;;;11.43;5.88;;;10.30;99.90;;;;;;5138650;27;20042;-48
2022/10/10 02:46:13;;;;;;;12.35;6.57;;;10.30;99.90;;;;;;5132135;27;20043;-48
2022/10/10 02:48:40;;;;;;;11.25;6.03;;;10.30;99.90;;;;;;5117040;27;20581;-48
2022/10/10 02:51:07;;;;;;;14.25;6.20;;;10.30;99.90;;;;;;5111405;28;20059;-49
2022/10/10 02:53:36;;;;;;;11.95;6.05;;;10.30;99.90;;;;;;5126390;22;20047;-47
2022/10/10 02:56:28;;;;;;;13.15;6.05;;;10.30;99.90;;;;;;5122470;27;20050;-53
2022/10/10 02:58:56;;;;;;;14.10;6.38;;;10.30;99.90;;;;;;5111046;28;20484;-48
2022/10/10 03:01:23;;;;;;;12.10;6.45;;;10.30;99.90;;;;;;5116923;27;20044;-47
2022/10/10 03:03:50;;;;;;;9.82;6.05;;;10.30;99.90;;;;;;5121032;27;20043;-48
2022/10/10 03:06:17;;;;;;;10.85;6.45;;;10.30;99.90;;;;;;5130376;27;20688;-47
2022/10/10 03:08:43;;;;;;;12.30;5.93;;;10.30;99.90;;;;;;5132166;27;20035;-47
2022/10/10 03:11:10;;;;;;;12.05;5.85;;;10.30;99.90;;;;;;5119472;27;20035;-47
2022/10/10 03:13:37;;;;;;;11.45;5.75;;;10.30;99.90;;;;;;5112201;27;20478;-47
2022/10/10 03:16:05;;;;;;;12.52;5.93;;;10.30;99.90;;;;;;5128777;27;20095;-47
2022/10/10 03:18:32;;;;;;;12.27;5.68;;;10.30;99.90;;;;;;5127250;27;20040;-49
2022/10/10 03:20:59;;;;;;;9.32;5.70;;;10.30;99.90;;;;;;5121354;27;20078;-47
2022/10/10 03:23:25;;;;;;;16.38;6.30;;;10.30;99.90;;;;;;5123030;27;20062;-48
2022/10/10 03:25:52;;;;;;;10.00;6.05;;;10.20;99.90;;;;;;5129664;27;20070;-47
2022/10/10 03:28:20;;;;;;;12.38;5.35;;;10.20;99.90;;;;;;5129680;28;20118;-47
2022/10/10 03:30:47;;;;;;;12.10;5.90;;;10.20;99.90;;;;;;5130782;28;20047;-47
2022/10/10 03:33:14;;;;;;;14.95;5.43;;;10.20;99.90;;;;;;5132044;28;20586;-47
2022/10/10 03:35:41;;;;;;;13.15;5.88;;;10.20;99.90;;;;;;5130335;28;20047;-51
2022/10/10 03:38:10;;;;;;;11.57;5.20;;;10.20;99.90;;;;;;5132071;28;20133;-48
2022/10/10 03:40:39;;;;;;;11.13;4.65;;;10.20;99.90;;;;;;5131163;28;20077;-47
2022/10/10 03:43:07;;;;;;;11.30;5.20;;;10.10;99.90;;;;;;5132103;28;20035;-47
2022/10/10 03:45:34;;;;;;;11.10;5.40;;;10.10;99.90;;;;;;5118246;27;20056;-48
2022/10/10 03:48:01;;;;;;;10.05;6.18;;;10.20;99.90;;;;;;5127427;28;20078;-47
2022/10/10 03:50:28;;;;;;;9.23;5.22;;;10.20;99.90;;;;;;5131752;28;20724;-47
2022/10/10 03:52:55;;;;;;;9.80;5.13;;;10.10;99.90;;;;;;5114485;28;20456;-47
2022/10/10 03:55:22;;;;;;;10.20;5.32;;;10.20;99.90;;;;;;5112942;28;20088;-47
2022/10/10 03:57:48;;;;;;;9.85;5.97;;;10.10;99.90;;;;;;5129418;28;20069;-47
2022/10/10 04:00:15;;;;;;;9.23;4.93;;;10.10;99.90;;;;;;5130556;28;20062;-50
2022/10/10 04:02:42;;;;;;;10.82;5.15;;;10.10;99.90;;;;;;5131144;28;20043;-47
2022/10/10 04:05:09;;;;;;;10.10;5.03;;;10.10;99.90;;;;;;5131265;28;20063;-48
2022/10/10 04:07:36;;;;;;;13.63;5.78;;;10.10;99.90;;;;;;5123882;27;20127;-47
2022/10/10 04:10:04;;;;;;;14.35;6.28;;;10.10;99.90;;;;;;5126324;28;20067;-49
2022/10/10 04:12:31;;;;;;;10.77;5.15;;;10.10;99.90;;;;;;5113340;28;20070;-47
2022/10/10 04:14:57;;;;;;;10.02;4.85;;;10.10;99.90;;;;;;5114722;28;20040;-47
2022/10/10 04:17:24;;;;;;;9.07;5.53;;;10.00;99.90;;;;;;5128756;28;20499;-50
2022/10/10 04:19:51;;;;;;;12.75;4.78;;;10.00;99.90;;;;;;5131829;28;20086;-49
2022/10/10 04:22:18;;;;;;;11.30;4.82;;;10.00;99.90;;;;;;5132603;27;20114;-47
2022/10/10 04:24:44;;;;;;;10.73;4.72;;;9.90;99.90;;;;;;5123685;27;20496;-47
2022/10/10 04:27:11;;;;;;;9.02;5.18;;;9.90;99.90;;;;;;5129173;27;20419;-47
2022/10/10 04:29:38;;;;;;;13.15;5.82;;;9.90;99.90;;;;;;5129186;27;20119;-47
2022/10/10 04:32:06;;;;;;;11.48;4.97;;;9.90;99.90;;;;;;5114921;28;20114;-48
2022/10/10 04:34:32;;;;;;;11.50;5.68;;;9.90;99.90;;;;;;5113542;28;20127;-48
2022/10/10 04:36:59;;;;;;;9.05;5.07;;;9.80;99.90;;;;;;5128225;27;20088;-47
2022/10/10 04:39:26;;;;;;;13.05;5.07;;;9.80;99.90;;;;;;5133065;27;20134;-48
2022/10/10 04:41:53;;;;;;;11.63;5.47;;;9.80;99.90;;;;;;5134177;27;20118;-48
2022/10/10 04:44:20;;;;;;;11.57;5.55;;;9.80;99.90;;;;;;5133586;27;20070;-47
2022/10/10 04:46:46;;;;;;;11.27;6.35;;;9.70;99.90;;;;;;5133066;27;20110;-49
2022/10/10 04:49:13;;;;;;;11.82;6.13;;;9.70;99.90;;;;;;5133938;27;20119;-51
2022/10/10 04:51:40;;;;;;;9.68;5.03;;;9.60;99.90;;;;;;5134538;27;20047;-50
2022/10/10 04:54:06;;;;;;;13.27;5.45;;;9.50;99.90;;;;;;5133867;27;20043;-49
2022/10/10 04:56:33;;;;;;;9.35;4.85;;;9.40;99.90;;;;;;5128760;27;20609;-47
2022/10/10 04:59:00;;;;;;;11.95;5.68;;;9.30;99.90;;;;;;5126683;27;20118;-47
2022/10/10 05:01:27;;;;;;;17.15;6.55;;;9.30;99.90;;;;;;5133029;27;20508;-50
2022/10/10 05:03:54;;;;;;;10.68;5.70;;;9.20;99.90;;;;;;5132985;27;20046;-50
2022/10/10 05:06:21;;;;;;;12.20;5.47;;;9.20;99.90;;;;;;5129623;27;20554;-52
2022/10/10 05:08:48;;;;;;;16.35;5.55;;;9.10;99.90;;;;;;5132497;27;20114;-48
2022/10/10 05:11:14;;;;;;;12.10;5.40;;;9.10;99.90;;;;;;5133646;27;20063;-47
2022/10/10 05:13:41;;;;;;;9.82;5.30;;;9.10;99.90;;;;;;5131661;27;20078;-50
2022/10/10 05:16:08;;;;;;;10.45;5.15;;;9.30;99.90;;;;;;5124430;27;20055;-49
2022/10/10 05:18:37;;;;;;;16.05;6.95;;;9.10;99.90;;;;;;5111731;27;20099;-48
2022/10/10 05:21:06;;;;;;;11.70;5.60;;;9.10;99.90;;;;;;5124194;27;20059;-48
2022/10/10 05:23:34;;;;;;;11.68;5.72;;;9.10;99.90;;;;;;5124515;27;20043;-47
2022/10/10 05:26:01;;;;;;;14.77;6.10;;;9.10;99.90;;;;;;5125470;27;20578;-49
2022/10/10 05:28:27;;;;;;;13.45;5.32;;;9.20;99.90;;;;;;5114246;27;20487;-47
2022/10/10 05:30:54;;;;;;;12.23;6.03;;;9.20;99.90;;;;;;5132912;27;20093;-47
2022/10/10 05:33:21;;;;;;;8.57;5.60;;;9.20;99.90;;;;;;5133321;27;20100;-49
2022/10/10 05:35:48;;;;;;;14.05;5.80;;;9.20;99.90;;;;;;5133397;27;20035;-48
2022/10/10 05:38:14;;;;;;;11.52;6.43;;;9.20;99.90;;;;;;5134108;27;20073;-47
2022/10/10 05:40:41;;;;;;;11.95;6.35;;;9.20;99.90;;;;;;5128735;27;20063;-49
2022/10/10 05:43:08;;;;;;;14.98;6.75;;;9.20;99.90;;;;;;5120174;27;20459;-48
2022/10/10 05:45:35;;;;;;;15.48;6.80;;;9.20;99.90;;;;;;5119873;27;20032;-47
2022/10/10 05:48:02;;;;;;;14.43;7.10;;;9.20;99.90;;;;;;5112473;28;20496;-49
2022/10/10 05:50:35;;;;;;;12.65;8.25;;;9.30;99.90;;;;;;5099944;27;20567;-49
2022/10/10 05:53:02;;;;;;;18.58;10.98;;;9.30;99.90;;;;;;5133871;27;20118;-48
2022/10/10 05:55:28;;;;;;;23.55;10.77;;;9.20;99.90;;;;;;5129310;27;20068;-47
2022/10/10 05:57:55;;;;;;;30.45;12.75;;;9.20;99.90;;;;;;5127736;27;20039;-47
2022/10/10 06:00:22;;;;;;;25.73;11.48;;;9.10;99.90;;;;;;5130994;27;20476;-47
2022/10/10 06:02:49;;;;;;;30.63;12.80;;;9.20;99.90;;;;;;5112721;28;20044;-50
2022/10/10 06:05:16;;;;;;;23.77;12.63;;;9.20;99.90;;;;;;5093224;28;20143;-47
2022/10/10 06:07:43;;;;;;;32.33;15.98;;;9.10;99.90;;;;;;5113029;28;20074;-47
2022/10/10 06:10:36;;;;;;;36.25;14.77;;;9.10;99.90;;;;;;5125917;27;20396;-48
2022/10/10 06:13:03;;;;;;;34.28;14.30;;;9.10;99.90;;;;;;5129450;27;20043;-48
2022/10/10 06:15:30;;;;;;;24.23;12.00;;;9.10;99.90;;;;;;5132812;27;20067;-47
2022/10/10 06:17:57;;;;;;;12.75;7.22;;;9.10;99.90;;;;;;5132090;27;20070;-48
2022/10/10 06:20:24;;;;;;;24.75;7.40;;;9.00;99.90;;;;;;5132796;27;20551;-47
2022/10/10 06:22:50;;;;;;;13.63;6.18;;;9.00;99.90;;;;;;5132490;27;20558;-47
2022/10/10 06:25:18;;;;;;;16.08;6.32;;;9.00;99.90;;;;;;5129868;27;20043;-47
2022/10/10 06:28:01;;;;;;;9.95;5.70;;;9.00;99.90;;;;;;5112553;28;20046;-47
2022/10/10 06:30:28;;;;;;;12.45;6.70;;;9.00;99.90;;;;;;5132601;27;20496;-49
2022/10/10 06:32:56;;;;;;;10.52;6.00;;;9.10;99.90;;;;;;5133167;27;20122;-47
2022/10/10 06:35:23;;;;;;;11.40;5.88;;;9.10;99.90;;;;;;5128550;27;20047;-48
2022/10/10 06:37:50;;;;;;;17.85;5.95;;;9.20;99.90;;;;;;5119042;27;20082;-48
2022/10/10 06:40:17;;;;;;;12.27;5.70;;;9.30;99.90;;;;;;5132818;27;20090;-50
2022/10/10 06:42:43;;;;;;;8.48;5.68;;;9.30;99.90;;;;;;5132481;27;20121;-49
2022/10/10 06:45:11;;;;;;;17.15;5.65;;;9.20;99.90;;;;;;5122189;27;20039;-50
2022/10/10 06:47:38;;;;;;;11.50;5.50;;;9.30;99.90;;;;;;5112226;28;20063;-48
2022/10/10 06:50:05;;;;;;;;;;;9.30;99.90;;;;;;5094370;27;20067;-49
2022/10/10 06:52:32;;;;;;;12.48;5.38;;;9.40;99.90;;;;;;5124075;27;19966;-47
2022/10/10 06:54:58;;;;;;;14.15;5.88;;;9.40;99.90;;;;;;5132073;27;20429;-47
2022/10/10 06:57:27;;;;;;;13.57;6.97;;;9.50;99.90;;;;;;5132711;27;20077;-50
2022/10/10 06:59:53;;;;;;;15.35;6.55;;;9.70;99.90;;;;;;5125174;27;20067;-48
2022/10/10 07:02:22;;;;;;;10.00;6.00;;;9.90;99.90;;;;;;5131095;27;20071;-48
2022/10/10 07:04:48;;;;;;;15.57;6.05;;;10.10;99.90;;;;;;5116246;27;20043;-48
2022/10/10 07:07:15;;;;;;;9.48;5.13;;;10.20;99.90;;;;;;5111780;28;20454;-48
2022/10/10 07:09:42;;;;;;;11.98;5.18;;;10.30;99.90;;;;;;5112093;28;20452;-48
2022/10/10 07:12:09;;;;;;;13.05;5.85;;;10.50;99.90;;;;;;5127245;27;20066;-49
2022/10/10 07:14:36;;;;;;;11.35;5.40;;;10.60;99.90;;;;;;5096019;27;20053;-47
2022/10/10 07:17:03;;;;;;;10.40;4.57;;;10.60;99.90;;;;;;5120972;27;20127;-49
2022/10/10 07:19:29;;;;;;;9.75;5.30;;;10.80;99.90;;;;;;5131754;27;20085;-47
2022/10/10 07:21:56;;;;;;;9.60;5.35;;;10.90;99.90;;;;;;5131292;27;20067;-49
2022/10/10 07:24:23;;;;;;;6.85;4.10;;;11.00;99.90;;;;;;5114781;28;20111;-47
2022/10/10 07:26:53;;;;;;;8.73;4.75;;;11.20;99.90;;;;;;5132288;28;20036;-47
2022/10/10 07:29:29;;;;;;;7.07;4.22;;;11.30;99.90;;;;;;5123465;27;20035;-48
2022/10/10 07:31:56;;;;;;;8.27;4.30;;;11.40;99.90;;;;;;5132046;28;20503;-49
2022/10/10 07:34:23;;;;;;;10.23;4.65;;;11.50;99.90;;;;;;5130380;28;20491;-47
2022/10/10 07:36:50;;;;;;;9.80;4.88;;;11.60;99.90;;;;;;5131168;28;20075;-50
2022/10/10 07:39:20;;;;;;;10.68;4.72;;;11.80;99.90;;;;;;5123473;28;20044;-47
2022/10/10 07:41:48;;;;;;;8.25;4.05;;;11.90;99.90;;;;;;5132347;28;20070;-50
2022/10/10 07:44:15;;;;;;;7.78;3.90;;;12.00;99.90;;;;;;5112599;27;20078;-48
2022/10/10 07:46:42;;;;;;;;;;;12.00;99.90;;;;;;5111883;28;20083;-51
2022/10/10 07:49:09;;;;;;;11.98;3.92;;;12.10;99.90;;;;;;5111410;28;19966;-51
2022/10/10 07:51:37;;;;;;;10.38;3.90;;;12.20;99.90;;;;;;5111511;28;20044;-50
2022/10/10 07:54:05;;;;;;;12.30;4.30;;;12.10;99.90;;;;;;5112445;27;20059;-50
2022/10/10 07:56:32;;;;;;;11.57;4.38;;;12.20;99.90;;;;;;5120178;27;20443;-49
2022/10/10 07:58:59;;;;;;;17.63;5.13;;;12.30;99.90;;;;;;5115392;28;20118;-54
2022/10/10 08:01:26;;;;;;;17.42;3.70;;;12.50;99.90;;;;;;5118161;27;20060;-48
2022/10/10 08:03:54;;;;;;;17.65;5.25;;;12.50;99.90;;;;;;5135338;27;20043;-49
2022/10/10 08:06:21;;;;;;;13.20;4.20;;;12.50;99.90;;;;;;5134745;27;20517;-51
2022/10/10 08:08:49;;;;;;;10.00;3.60;;;12.70;99.90;;;;;;5135031;27;20077;-50
2022/10/10 08:11:20;;;;;;;7.30;3.90;;;12.80;99.90;;;;;;5126922;27;20399;-49
2022/10/10 08:13:47;;;;;;;14.50;4.22;;;12.80;99.90;;;;;;5128574;27;20474;-48
2022/10/10 08:16:14;;;;;;;13.60;4.13;;;12.80;99.90;;;;;;5115051;28;20047;-50
2022/10/10 08:18:41;;;;;;;12.75;4.22;;;13.00;99.90;;;;;;5115131;28;20577;-49
2022/10/10 08:21:10;;;;;;;8.10;4.05;;;13.10;99.90;;;;;;5115072;28;20071;-48
2022/10/10 08:23:37;;;;;;;10.35;4.35;;;13.10;99.90;;;;;;5123342;27;20071;-50
2022/10/10 08:26:06;;;;;;;9.93;4.40;;;13.10;99.90;;;;;;5131617;27;20484;-51
2022/10/10 08:28:34;;;;;;;13.25;3.92;;;13.00;99.90;;;;;;5123766;27;20092;-47
2022/10/10 08:31:12;;;;;;;10.93;3.88;;;13.00;99.90;;;;;;5134923;27;20039;-49
2022/10/10 08:33:39;;;;;;;;;;;13.00;99.90;;;;;;5114778;28;20090;-50
2022/10/10 08:36:09;;;;;;;11.17;4.30;;;13.00;99.90;;;;;;5114941;28;20348;-48
2022/10/10 08:38:37;;;;;;;5.88;3.65;;;13.20;99.90;;;;;;5121313;27;20118;-49
2022/10/10 08:41:37;;;;;;;11.30;3.58;;;13.40;99.90;;;;;;5114383;28;20067;-50
2022/10/10 08:44:28;;;;;;;9.80;4.18;;;13.60;99.90;;;;;;5114316;28;20039;-51
2022/10/10 08:47:00;;;;;;;11.05;4.18;;;13.70;99.90;;;;;;5120065;27;20130;-50
2022/10/10 08:49:31;;;;;;;9.07;3.70;;;13.70;99.90;;;;;;5114827;27;20075;-50
2022/10/10 08:52:04;;;;;;;7.68;3.70;;;13.70;99.90;;;;;;5114018;27;20078;-50
2022/10/10 08:54:33;;;;;;;8.23;3.47;;;13.80;99.90;;;;;;5131271;22;20067;-48
2022/10/10 08:57:05;;;;;;;6.07;3.50;;;13.90;99.90;;;;;;5121767;27;20067;-49
2022/10/10 08:59:37;;;;;;;7.97;3.92;;;14.00;99.90;;;;;;5114257;28;20123;-48
2022/10/10 09:02:24;;;;;;;7.95;3.60;;;14.10;99.90;;;;;;5114422;28;20078;-47
2022/10/10 09:05:05;;;;;;;8.05;3.67;;;14.20;99.90;;;;;;5118444;27;20067;-48
2022/10/10 09:07:46;;;;;;;10.40;3.47;;;14.30;99.90;;;;;;5114244;28;20446;-48
2022/10/10 09:10:30;;;;;;;4.15;3.53;;;14.40;99.90;;;;;;5113453;28;20072;-47
2022/10/10 09:13:14;;;;;;;7.18;3.63;;;14.40;99.90;;;;;;5127540;27;20139;-49
2022/10/10 09:16:18;;;;;;;7.30;3.70;;;14.40;99.90;;;;;;5127093;27;20470;-48
2022/10/10 09:18:59;;;;;;;7.18;3.60;;;14.20;99.90;;;;;;5043917;27;20128;-50
2022/10/10 09:21:36;;;;;;;8.13;3.28;;;14.20;99.90;;;;;;5132102;27;20387;-48
2022/10/10 09:24:11;;;;;;;8.25;3.45;;;14.10;99.90;;;;;;5124289;27;20047;-48
2022/10/10 09:26:53;;;;;;;8.02;3.95;;;14.30;99.90;;;;;;5126907;27;20074;-49
2022/10/10 09:29:41;;;;;;;11.23;4.05;;;14.40;99.90;;;;;;5125723;27;20075;-48
2022/10/10 09:32:13;;;;;;;10.35;4.30;;;14.40;99.90;;;;;;5133219;27;20113;-49
2022/10/10 09:34:48;;;;;;;5.72;3.90;;;14.50;99.90;;;;;;5113176;28;20082;-48
2022/10/10 09:37:20;;;;;;;8.40;4.03;;;14.80;99.90;;;;;;5112942;27;20130;-49
2022/10/10 09:40:32;;;;;;;5.07;3.65;;;14.90;99.90;;;;;;5134183;27;20051;-48
2022/10/10 09:43:19;;;;;;;8.95;3.90;;;15.30;99.90;;;;;;5120903;27;20114;-50
2022/10/10 09:45:56;;;;;;;10.70;3.75;;;15.60;99.90;;;;;;5127218;27;20043;-50
2022/10/10 09:48:38;;;;;;;6.40;3.28;;;15.70;99.90;;;;;;5133915;27;20096;-47
2022/10/10 09:51:15;;;;;;;8.45;3.45;;;15.90;99.90;;;;;;5132593;27;20058;-48
2022/10/10 09:53:44;;;;;;;15.63;3.88;;;15.90;99.90;;;;;;5124910;27;20082;-48
2022/10/10 09:56:17;;;;;;;7.15;3.20;;;16.00;99.90;;;;;;5131533;27;20134;-48
2022/10/10 09:58:48;;;;;;;6.50;3.45;;;15.90;99.90;;;;;;5112932;28;20085;-48
2022/10/10 10:01:20;;;;;;;8.10;3.40;;;16.00;99.90;;;;;;5094059;28;20082;-48
2022/10/10 10:04:16;;;;;;;6.40;3.70;;;16.10;99.90;;;;;;5120910;27;20046;-49
2022/10/10 10:07:26;;;;;;;6.85;3.60;;;16.00;99.90;;;;;;5128284;27;20078;-48
2022/10/10 10:10:01;;;;;;;5.50;2.90;;;16.10;99.90;;;;;;5119284;27;20134;-48
2022/10/10 10:12:36;;;;;;;9.27;3.80;;;16.00;99.90;;;;;;5094990;28;20118;-48
2022/10/10 10:15:14;;;;;;;11.27;5.35;;;16.10;99.90;;;;;;5117542;27;20104;-50
2022/10/10 10:17:42;;;;;;;7.45;3.55;;;16.10;99.90;;;;;;5112781;28;20131;-48
2022/10/10 10:20:27;;;;;;;6.47;3.72;;;16.20;99.90;;;;;;5094370;28;20078;-49
2022/10/10 10:22:54;;;;;;;12.32;4.13;;;16.30;99.90;;;;;;5114261;27;20043;-48
2022/10/10 10:25:34;;;;;;;;;;;16.40;99.90;;;;;;5124918;27;20078;-48
2022/10/10 10:28:09;;;;;;;8.93;3.80;;;16.40;99.90;;;;;;5133226;27;19944;-48
2022/10/10 10:30:43;;;;;;;5.03;3.20;;;16.40;99.90;;;;;;5132005;27;20122;-48
2022/10/10 10:33:34;;;;;;;9.07;4.53;;;16.50;99.90;;;;;;5115137;27;20116;-48
2022/10/10 10:36:04;;;;;;;8.02;3.63;;;16.50;99.90;;;;;;5112307;28;20393;-49
2022/10/10 10:38:58;;;;;;;6.47;3.20;;;16.50;99.90;;;;;;5112585;28;20104;-48
2022/10/10 10:41:37;;;;;;;11.40;3.55;;;16.60;99.90;;;;;;5117895;27;20126;-48
2022/10/10 10:44:28;;;;;;;11.02;3.78;;;16.70;99.90;;;;;;5118118;27;20063;-51
2022/10/10 10:47:06;;;;;;;5.03;3.25;;;16.70;99.90;;;;;;5127776;27;20458;-48
2022/10/10 10:49:33;;;;;;;;;;;16.90;99.90;;;;;;5133353;27;20126;-48
2022/10/10 10:52:15;;;;;;;8.45;3.10;;;17.10;99.90;;;;;;5131709;27;19919;-48
2022/10/10 10:55:13;;;;;;;10.82;3.20;;;17.30;99.90;;;;;;5120187;27;20043;-48
2022/10/10 10:57:50;;;;;;;9.85;3.42;;;17.30;99.90;;;;;;5116751;27;20074;-48
2022/10/10 11:00:51;;;;;;;6.20;3.45;;;17.40;99.90;;;;;;5124670;27;20057;-48
2022/10/10 11:03:57;;;;;;;9.57;2.90;;;17.40;99.90;;;;;;5117691;27;20031;-48
2022/10/10 11:06:44;;;;;;;5.72;3.00;;;17.40;99.90;;;;;;5110840;28;20522;-48
2022/10/10 11:09:43;;;;;;;6.60;3.50;;;17.60;99.90;;;;;;5112037;28;20092;-48
2022/10/10 11:12:35;;;;;;;8.52;3.95;;;17.70;99.90;;;;;;5117652;27;20100;-49
2022/10/10 11:15:09;;;;;;;7.00;3.10;;;17.80;99.90;;;;;;5111456;28;20531;-48
2022/10/10 11:17:44;;;;;;;5.22;2.92;;;17.90;99.90;;;;;;5111766;27;20556;-49
2022/10/10 11:20:30;;;;;;;6.53;2.88;;;17.90;99.90;;;;;;5120634;27;20062;-48
2022/10/10 11:23:13;;;;;;;8.73;3.35;;;18.10;99.90;;;;;;5132005;27;20122;-49
2022/10/10 11:25:51;;;;;;;10.23;3.55;;;18.30;99.90;;;;;;5118215;27;20441;-48
2022/10/10 11:28:39;;;;;;;7.22;3.30;;;18.30;99.90;;;;;;5111262;28;20120;-48
2022/10/10 11:31:19;;;;;;;8.60;3.10;;;18.30;99.90;;;;;;5110397;28;20047;-49
2022/10/10 11:33:51;;;;;;;8.35;3.97;;;18.30;99.90;;;;;;5123984;28;20074;-49
2022/10/10 11:36:24;;;;;;;8.27;2.97;;;18.30;99.90;;;;;;5095536;28;20410;-48
2022/10/10 11:38:59;;;;;;;10.77;3.60;;;18.30;99.90;;;;;;5093256;28;20453;-48
2022/10/10 11:41:37;;;;;;;7.50;3.80;;;18.50;99.90;;;;;;5111561;28;20039;-48
2022/10/10 11:44:30;;;;;;;8.50;3.53;;;18.60;99.90;;;;;;5120003;28;20075;-48
2022/10/10 11:47:06;;;;;;;9.35;3.80;;;18.70;99.90;;;;;;5126977;28;20510;-48
2022/10/10 11:49:54;;;;;;;6.35;3.33;;;18.70;99.90;;;;;;5132183;28;20096;-49
2022/10/10 11:52:24;;;;;;;;;;;18.80;99.90;;;;;;5121900;28;20388;-48
2022/10/10 11:55:23;;;;;;;7.25;3.00;;;18.80;99.90;;;;;;5110685;28;20290;-48
2022/10/10 11:58:04;;;;;;;13.02;3.28;;;18.90;99.90;;;;;;5111151;28;20067;-48
2022/10/10 12:00:48;;;;;;;11.50;3.28;;;19.00;99.90;;;;;;5111482;28;20118;-49
2022/10/10 12:03:15;;;;;;;6.45;2.85;;;19.10;99.90;;;;;;5116943;28;20122;-50
2022/10/10 12:05:51;;;;;;;8.90;2.92;;;19.00;99.90;;;;;;5110521;28;20069;-48
2022/10/10 12:08:23;;;;;;;5.95;3.15;;;19.00;99.90;;;;;;5111546;28;20085;-48
2022/10/10 12:10:57;;;;;;;6.90;2.88;;;19.10;99.90;;;;;;5114811;28;20507;-47
2022/10/10 12:13:31;;;;;;;6.75;2.92;;;19.10;99.90;;;;;;5112134;28;20063;-48
2022/10/10 12:16:04;;;;;;;8.90;2.88;;;19.20;99.90;;;;;;5110683;28;20131;-48
2022/10/10 12:18:37;;;;;;;9.32;2.80;;;19.30;99.90;;;;;;5110873;28;20039;-48
2022/10/10 12:21:10;;;;;;;5.20;2.67;;;19.40;99.90;;;;;;5111118;28;20131;-48
2022/10/10 12:23:37;;;;;;;5.82;2.58;;;19.40;99.90;;;;;;5109650;28;20071;-49
2022/10/10 12:26:04;;;;;;;6.43;3.15;;;19.40;99.90;;;;;;5117897;28;20043;-48
2022/10/10 12:28:55;;;;;;;6.43;2.58;;;19.40;99.90;;;;;;5124572;28;20557;-50
2022/10/10 12:31:33;;;;;;;5.82;2.70;;;19.50;99.90;;;;;;5131366;28;20082;-48
2022/10/10 12:34:12;;;;;;;;;;;19.70;99.90;;;;;;5131544;28;20070;-48
2022/10/10 12:36:38;;;;;;;7.40;2.80;;;19.70;99.90;;;;;;5131195;28;19958;-49
2022/10/10 12:39:25;;;;;;;5.65;2.60;;;19.70;99.90;;;;;;5122722;28;20067;-48
2022/10/10 12:41:55;;;;;;;6.90;3.53;;;19.80;99.90;;;;;;5129776;28;20458;-49
2022/10/10 12:44:33;;;;;;;9.00;2.90;;;19.90;99.90;;;;;;5113539;28;20457;-48
2022/10/10 12:47:15;;;;;;;10.75;2.58;;;19.90;99.90;;;;;;5114642;28;20044;-49
2022/10/10 12:49:54;;;;;;;5.13;2.72;;;20.10;99.90;;;;;;5113925;28;20401;-48
2022/10/10 12:52:26;;;;;;;5.25;3.03;;;20.20;99.90;;;;;;5113767;27;20446;-48
2022/10/10 12:55:00;;;;;;;7.05;2.80;;;20.10;99.90;;;;;;5113879;28;20058;-49
2022/10/10 12:57:37;;;;;;;4.90;2.53;;;20.10;99.90;;;;;;5114828;28;20048;-48
2022/10/10 13:00:19;;;;;;;6.65;2.25;;;20.10;99.90;;;;;;5114495;27;20448;-47
2022/10/10 13:03:01;;;;;;;5.55;2.83;;;20.00;99.90;;;;;;5113543;28;20075;-48
2022/10/10 13:05:32;;;;;;;4.78;1.83;;;19.90;99.90;;;;;;5114015;28;20074;-48
2022/10/10 13:08:03;;;;;;;2.45;2.00;;;19.80;99.90;;;;;;5115175;27;20504;-48
2022/10/10 13:10:31;;;;;;;5.45;1.98;;;19.80;99.90;;;;;;5114268;28;20105;-48
2022/10/10 13:13:12;;;;;;;9.25;2.55;;;19.80;99.90;;;;;;5114181;28;20068;-48
2022/10/10 13:15:38;;;;;;;8.30;2.20;;;19.80;99.90;;;;;;5120051;27;20075;-48
2022/10/10 13:18:05;;;;;;;20.98;3.75;;;19.80;99.90;;;;;;5132907;27;20062;-48